Time;durP1;ratioP1;P1;durP2;ratioP2;P2;SDS_P1;SDS_P2;PMS_P1;PMS_P2;Temp;Humidity;BMP_temperature;BMP_pressure;BME280_temperature;BME280_humidity;BME280_pressure;Samples;Min_cycle;Max_cycle;Signal;HPM_P1;HPM_P2
2022/01/09 00:01:32;;;;;;;;;;;-0.90;99.90;;;;;;4975206;28;20050;-81
2022/01/09 00:03:58;;;;;;;58.50;24.88;;;-0.80;99.90;;;;;;4991216;28;19914;-82
2022/01/09 00:06:24;;;;;;;;;;;-0.90;99.90;;;;;;4973443;28;20027;-81
2022/01/09 00:08:50;;;;;;;53.83;26.08;;;-0.90;99.90;;;;;;4990852;28;19957;-81
2022/01/09 00:11:18;;;;;;;;;;;-0.80;99.90;;;;;;4991656;28;20053;-81
2022/01/09 00:13:45;;;;;;;52.63;26.77;;;-0.90;99.90;;;;;;4990461;28;19906;-81
2022/01/09 00:16:10;;;;;;;51.85;26.05;;;-0.90;99.90;;;;;;4974821;28;20018;-81
2022/01/09 00:18:36;;;;;;;;;;;-0.90;99.90;;;;;;4974054;28;20035;-82
2022/01/09 00:21:05;;;;;;;54.15;26.90;;;-0.90;99.90;;;;;;4989760;28;19910;-80
2022/01/09 00:23:32;;;;;;;61.92;28.45;;;-0.90;99.90;;;;;;4974685;28;20054;-82
2022/01/09 00:25:59;;;;;;;55.35;26.13;;;-0.90;99.90;;;;;;4974667;28;20562;-79
2022/01/09 00:28:25;;;;;;;56.60;28.50;;;-0.90;99.90;;;;;;4973917;28;20400;-80
2022/01/09 00:30:50;;;;;;;;;;;-0.90;99.90;;;;;;4991099;28;20031;-80
2022/01/09 00:33:20;;;;;;;57.17;25.98;;;-0.90;99.90;;;;;;4990467;28;19969;-81
2022/01/09 00:35:47;;;;;;;57.75;28.58;;;-0.90;99.90;;;;;;4991678;28;20027;-81
2022/01/09 00:38:13;;;;;;;56.75;27.80;;;-0.90;99.90;;;;;;4972443;28;20026;-81
2022/01/09 00:40:38;;;;;;;;;;;-0.90;99.90;;;;;;4990516;28;20051;-81
2022/01/09 00:43:08;;;;;;;55.03;24.85;;;-0.80;99.90;;;;;;4973249;28;20358;-79
2022/01/09 00:45:34;;;;;;;50.33;24.08;;;-0.70;99.90;;;;;;4990366;28;20023;-81
2022/01/09 00:48:00;;;;;;;44.10;22.42;;;-0.90;99.90;;;;;;4972856;28;20185;-80
2022/01/09 00:50:26;;;;;;;;;;;-0.80;99.90;;;;;;4992076;28;20022;-80
2022/01/09 00:52:52;;;;;;;57.92;28.38;;;-1.00;99.90;;;;;;4990297;28;19957;-80
2022/01/09 00:55:18;;;;;;;;;;;-1.00;99.90;;;;;;4990541;28;20063;-80
2022/01/09 00:57:44;;;;;;;48.30;22.27;;;-1.00;99.90;;;;;;4991174;28;19906;-81
2022/01/09 01:00:11;;;;;;;44.60;21.40;;;-1.00;99.90;;;;;;4972742;28;20030;-80
2022/01/09 01:02:37;;;;;;;41.85;22.55;;;-1.00;99.90;;;;;;4990480;28;20050;-80
2022/01/09 01:05:05;;;;;;;41.60;20.05;;;-1.10;99.90;;;;;;4994750;28;20066;-80
2022/01/09 01:07:31;;;;;;;46.85;22.38;;;-1.00;99.90;;;;;;4980104;28;20019;-82
2022/01/09 01:09:59;;;;;;;;;;;-1.00;99.90;;;;;;4997813;28;20022;-81
2022/01/09 01:12:26;;;;;;;41.67;20.30;;;-1.00;99.90;;;;;;4976853;28;19913;-80
2022/01/09 01:14:53;;;;;;;35.28;18.60;;;-1.10;99.90;;;;;;4993633;28;20061;-80
2022/01/09 01:17:20;;;;;;;39.45;19.83;;;-1.10;99.90;;;;;;4977304;28;20026;-80
2022/01/09 01:19:46;;;;;;;44.92;21.13;;;-1.20;99.90;;;;;;4976741;28;20022;-80
2022/01/09 01:22:12;;;;;;;;;;;-1.20;99.90;;;;;;4976627;28;20023;-81
2022/01/09 01:24:38;;;;;;;40.92;19.58;;;-1.20;99.90;;;;;;4975298;28;19901;-79
2022/01/09 01:27:05;;;;;;;39.85;18.58;;;-1.30;99.90;;;;;;4993001;28;20053;-79
2022/01/09 01:29:31;;;;;;;34.08;17.33;;;-1.30;99.90;;;;;;4977211;28;20035;-81
2022/01/09 01:31:57;;;;;;;35.83;18.63;;;-1.40;99.90;;;;;;4992945;28;20082;-81
2022/01/09 01:34:23;;;;;;;;;;;-1.50;99.90;;;;;;4977057;28;20026;-81
2022/01/09 01:36:49;;;;;;;38.63;19.23;;;-1.50;99.90;;;;;;4993252;28;19966;-81
2022/01/09 01:39:14;;;;;;;;;;;-1.60;99.90;;;;;;4976115;28;20047;-81
2022/01/09 01:41:40;;;;;;;35.00;18.38;;;-1.70;99.90;;;;;;4974044;28;19917;-82
2022/01/09 01:44:10;;;;;;;;;;;-1.90;99.90;;;;;;4975299;28;20042;-80
2022/01/09 01:46:37;;;;;;;41.22;19.50;;;-2.00;99.90;;;;;;4974657;28;19891;-81
2022/01/09 01:49:03;;;;;;;34.25;16.52;;;-2.00;99.90;;;;;;4975523;28;20026;-80
2022/01/09 01:51:29;;;;;;;33.70;15.90;;;-2.10;99.90;;;;;;4975034;28;20067;-81
2022/01/09 01:53:56;;;;;;;37.92;17.77;;;-2.20;99.90;;;;;;4992040;28;20023;-81
2022/01/09 01:56:23;;;;;;;41.55;18.52;;;-2.20;99.90;;;;;;4992349;28;20022;-79
2022/01/09 01:58:50;;;;;;;91.68;39.03;;;-2.20;99.90;;;;;;4978910;28;20038;-81
2022/01/09 02:01:16;;;;;;;65.93;28.98;;;-2.30;99.90;;;;;;4980407;28;20022;-81
2022/01/09 02:03:42;;;;;;;57.63;23.20;;;-2.30;99.90;;;;;;4974985;28;20034;-81
2022/01/09 02:06:09;;;;;;;42.78;18.98;;;-2.30;99.90;;;;;;4976652;28;20027;-81
2022/01/09 02:08:34;;;;;;;29.95;16.80;;;-2.30;99.90;;;;;;4975074;28;20046;-81
2022/01/09 02:11:00;;;;;;;;;;;-2.20;99.90;;;;;;4992496;28;20030;-81
2022/01/09 02:13:26;;;;;;;28.75;13.85;;;-2.20;99.90;;;;;;4974743;28;19906;-81
2022/01/09 02:15:57;;;;;;;;;;;-2.30;99.90;;;;;;4990686;28;20026;-81
2022/01/09 02:18:23;;;;;;;24.55;13.20;;;-2.30;99.90;;;;;;4990342;28;20486;-80
2022/01/09 02:20:50;;;;;;;30.83;13.80;;;-2.30;99.90;;;;;;4990460;28;20061;-79
2022/01/09 02:23:18;;;;;;;29.02;13.88;;;-2.30;99.90;;;;;;4991919;28;20045;-81
2022/01/09 02:25:46;;;;;;;24.05;9.27;;;-2.40;99.90;;;;;;4973921;28;20127;-80
2022/01/09 02:28:13;;;;;;;19.75;7.53;;;-2.40;99.90;;;;;;4974605;28;20035;-80
2022/01/09 02:30:40;;;;;;;20.95;9.68;;;-2.60;99.90;;;;;;4974448;28;20070;-80
2022/01/09 02:33:09;;;;;;;16.08;7.80;;;-2.50;99.90;;;;;;4975027;28;20102;-79
2022/01/09 02:35:36;;;;;;;18.60;9.05;;;-2.70;99.90;;;;;;4991910;28;20381;-79
2022/01/09 02:38:04;;;;;;;26.48;12.52;;;-2.70;99.90;;;;;;4977186;28;20030;-81
2022/01/09 02:40:30;;;;;;;26.02;10.80;;;-2.80;99.90;;;;;;4981233;28;20126;-80
2022/01/09 02:42:56;;;;;;;21.88;9.63;;;-2.90;99.90;;;;;;4991481;28;20062;-80
2022/01/09 02:45:24;;;;;;;26.77;11.88;;;-2.90;99.90;;;;;;4974171;28;20061;-81
2022/01/09 02:47:52;;;;;;;26.27;10.68;;;-3.00;99.90;;;;;;4975244;28;20117;-81
2022/01/09 02:52:53;;;;;;;21.98;9.38;;;-3.10;99.90;;;;;;4992903;28;20031;-80
2022/01/09 02:55:20;;;;;;;20.15;9.02;;;-3.20;99.90;;;;;;4975530;28;20039;-80
2022/01/09 02:57:49;;;;;;;21.42;10.45;;;-3.30;99.90;;;;;;4975776;28;20054;-81
2022/01/09 03:00:18;;;;;;;21.98;9.65;;;-3.30;99.90;;;;;;4992795;28;20042;-80
2022/01/09 03:02:44;;;;;;;26.60;11.52;;;-3.40;99.90;;;;;;4991718;28;20038;-81
2022/01/09 03:05:11;;;;;;;35.28;14.70;;;-3.40;99.90;;;;;;4976049;28;20034;-81
2022/01/09 03:07:38;;;;;;;35.72;16.10;;;-3.50;99.90;;;;;;4993104;28;20037;-80
2022/01/09 03:10:05;;;;;;;32.50;14.48;;;-3.70;99.90;;;;;;4992361;28;20038;-79
2022/01/09 03:12:31;;;;;;;35.38;15.80;;;-3.60;99.90;;;;;;4992926;28;20018;-80
2022/01/09 03:14:57;;;;;;;;;;;-3.60;99.90;;;;;;4993086;28;20026;-80
2022/01/09 03:17:22;;;;;;;34.35;13.98;;;-3.50;99.90;;;;;;4993136;28;20313;-80
2022/01/09 03:19:48;;;;;;;;;;;-3.70;99.90;;;;;;4992328;28;20026;-80
2022/01/09 03:22:14;;;;;;;30.77;12.70;;;-3.70;99.90;;;;;;4993069;28;19917;-80
2022/01/09 03:24:41;;;;;;;33.50;15.32;;;-3.80;99.90;;;;;;4976630;28;20079;-81
2022/01/09 03:27:07;;;;;;;39.70;17.17;;;-3.80;99.90;;;;;;4992862;28;20053;-81
2022/01/09 03:29:32;;;;;;;;;;;-3.90;99.90;;;;;;4992929;28;20031;-80
2022/01/09 03:31:58;;;;;;;23.45;11.20;;;-3.80;99.90;;;;;;4974438;28;19981;-80
2022/01/09 03:34:24;;;;;;;20.70;9.40;;;-3.90;99.90;;;;;;4973723;28;20026;-80
2022/01/09 03:36:49;;;;;;;;;;;-3.90;99.90;;;;;;4975762;28;20030;-80
2022/01/09 03:39:15;;;;;;;12.65;5.82;;;-4.10;99.90;;;;;;4975519;28;19905;-81
2022/01/09 03:41:41;;;;;;;13.30;5.25;;;-3.90;99.90;;;;;;4992295;28;20027;-81
2022/01/09 03:44:07;;;;;;;;;;;-4.10;99.90;;;;;;4975198;28;20027;-81
2022/01/09 03:46:32;;;;;;;15.30;6.20;;;-4.20;99.90;;;;;;4975100;28;19914;-80
2022/01/09 03:48:58;;;;;;;12.35;5.72;;;-4.20;99.90;;;;;;4974967;28;20082;-81
2022/01/09 03:51:26;;;;;;;;;;;-4.20;99.90;;;;;;4974354;28;20023;-81
2022/01/09 03:53:52;;;;;;;15.32;7.40;;;-4.40;99.90;;;;;;4974996;28;20286;-80
2022/01/09 03:56:18;;;;;;;14.07;6.85;;;-4.30;99.90;;;;;;4991164;28;20023;-80
2022/01/09 03:58:44;;;;;;;16.15;6.95;;;-4.30;99.90;;;;;;4975176;28;20031;-80
2022/01/09 04:01:09;;;;;;;;;;;-4.30;99.90;;;;;;4975645;28;20031;-81
2022/01/09 04:03:36;;;;;;;16.00;6.47;;;-4.20;99.90;;;;;;4990831;28;19921;-79
2022/01/09 04:06:02;;;;;;;13.07;5.57;;;-4.30;99.90;;;;;;4990473;28;20086;-79
2022/01/09 04:08:29;;;;;;;12.57;6.47;;;-4.10;99.90;;;;;;4992746;28;20015;-78
2022/01/09 04:10:55;;;;;;;11.50;4.53;;;-4.20;99.90;;;;;;4981288;28;20015;-81
2022/01/09 04:13:21;;;;;;;13.48;5.43;;;-4.20;99.90;;;;;;4973979;28;20023;-80
2022/01/09 04:15:49;;;;;;;16.00;5.35;;;-4.10;99.90;;;;;;4972935;28;20058;-81
2022/01/09 04:18:20;;;;;;;9.63;4.47;;;-4.10;99.90;;;;;;4973660;28;20023;-80
2022/01/09 04:20:47;;;;;;;12.35;5.78;;;-4.00;99.90;;;;;;4989637;28;20103;-80
2022/01/09 04:23:13;;;;;;;14.38;4.97;;;-4.00;99.90;;;;;;4989826;28;20034;-81
2022/01/09 04:25:40;;;;;;;15.18;5.43;;;-3.90;99.90;;;;;;4973777;28;20031;-80
2022/01/09 04:28:06;;;;;;;13.13;4.72;;;-3.80;99.90;;;;;;4990158;28;20025;-79
2022/01/09 04:30:32;;;;;;;13.38;6.72;;;-3.70;99.90;;;;;;4989704;28;20039;-80
2022/01/09 04:32:58;;;;;;;;;;;-3.60;99.90;;;;;;4973016;28;20061;-80
2022/01/09 04:35:24;;;;;;;18.73;8.98;;;-3.60;99.90;;;;;;4972156;28;19906;-80
2022/01/09 04:37:50;;;;;;;;;;;-3.50;99.90;;;;;;4993821;28;20019;-80
2022/01/09 04:40:18;;;;;;;33.53;12.88;;;-3.50;99.90;;;;;;4999729;28;19913;-79
2022/01/09 04:42:49;;;;;;;29.00;13.73;;;-3.40;99.90;;;;;;4995459;28;20062;-80
2022/01/09 04:45:17;;;;;;;29.45;13.07;;;-3.50;99.90;;;;;;4976519;28;20038;-79
2022/01/09 04:47:47;;;;;;;31.13;14.82;;;-3.50;99.90;;;;;;4977246;28;20023;-80
2022/01/09 04:50:18;;;;;;;36.83;14.55;;;-3.40;99.90;;;;;;4976987;28;20619;-80
2022/01/09 04:52:45;;;;;;;29.35;13.73;;;-3.60;99.90;;;;;;4994191;28;20026;-80
2022/01/09 04:55:11;;;;;;;25.10;12.50;;;-3.80;99.90;;;;;;4976640;28;20091;-79
2022/01/09 04:57:37;;;;;;;25.45;11.23;;;-3.70;99.90;;;;;;4976705;28;20033;-81
2022/01/09 05:00:06;;;;;;;26.83;11.77;;;-3.70;99.90;;;;;;4978666;28;20027;-80
2022/01/09 05:02:32;;;;;;;24.65;10.63;;;-3.90;99.90;;;;;;4976841;28;20098;-79
2022/01/09 05:04:58;;;;;;;21.73;10.32;;;-4.00;99.90;;;;;;4993815;28;20019;-81
2022/01/09 05:07:24;;;;;;;25.42;12.55;;;-4.00;99.90;;;;;;4977005;28;20034;-80
2022/01/09 05:09:49;;;;;;;27.77;13.27;;;-3.80;99.90;;;;;;4978630;28;20027;-80
2022/01/09 05:12:15;;;;;;;28.65;13.30;;;-4.00;99.90;;;;;;4993206;28;20031;-80
2022/01/09 05:14:41;;;;;;;23.90;11.00;;;-4.00;99.90;;;;;;4994205;28;20031;-80
2022/01/09 05:17:07;;;;;;;24.83;10.63;;;-4.10;99.90;;;;;;4976884;28;20082;-80
2022/01/09 05:19:35;;;;;;;20.95;8.10;;;-4.10;99.90;;;;;;4992314;28;20027;-80
2022/01/09 05:22:01;;;;;;;128.00;35.47;;;-4.00;99.90;;;;;;4993208;28;20038;-81
2022/01/09 05:24:27;;;;;;;79.57;24.83;;;-4.00;99.90;;;;;;4994208;28;20007;-80
2022/01/09 05:26:54;;;;;;;34.42;11.45;;;-4.10;99.90;;;;;;4976271;28;20045;-80
2022/01/09 05:29:21;;;;;;;16.58;7.28;;;-4.10;99.90;;;;;;4993811;28;20026;-79
2022/01/09 05:31:50;;;;;;;31.15;11.65;;;-4.10;99.90;;;;;;4976588;28;20027;-80
2022/01/09 05:34:16;;;;;;;17.20;7.65;;;-4.10;99.90;;;;;;4993383;28;20061;-79
2022/01/09 05:36:42;;;;;;;11.63;6.07;;;-4.20;99.90;;;;;;4991772;28;20083;-79
2022/01/09 05:39:08;;;;;;;20.15;8.50;;;-4.30;99.90;;;;;;4996695;28;20015;-78
2022/01/09 05:41:34;;;;;;;17.15;7.60;;;-4.20;99.90;;;;;;4969490;28;20109;-80
2022/01/09 05:44:00;;;;;;;26.42;10.82;;;-4.20;99.90;;;;;;4988945;28;20026;-79
2022/01/09 05:46:25;;;;;;;43.15;16.00;;;-4.40;99.90;;;;;;4969831;28;20038;-80
2022/01/09 05:48:51;;;;;;;79.63;25.95;;;-4.40;99.90;;;;;;4964414;28;20070;-77
2022/01/09 05:51:17;;;;;;;;;;;-4.50;99.90;;;;;;4981042;28;20396;-80
2022/01/09 05:53:43;;;;;;;67.32;23.95;;;-4.60;99.90;;;;;;4981030;28;20360;-79
2022/01/09 05:56:09;;;;;;;54.70;19.42;;;-4.60;99.90;;;;;;4980207;28;20022;-80
2022/01/09 05:58:35;;;;;;;57.85;19.13;;;-4.60;99.90;;;;;;4963115;28;20059;-79
2022/01/09 06:01:02;;;;;;;49.25;20.67;;;-4.60;99.90;;;;;;4962613;28;20023;-79
2022/01/09 06:03:28;;;;;;;48.05;18.67;;;-4.60;99.90;;;;;;4979702;28;20281;-79
2022/01/09 06:05:54;;;;;;;33.50;15.07;;;-4.60;99.90;;;;;;4962208;28;20026;-78
2022/01/09 06:08:20;;;;;;;42.10;16.60;;;-4.60;99.90;;;;;;4961762;28;20037;-78
2022/01/09 06:10:45;;;;;;;144.70;37.78;;;-4.50;99.90;;;;;;4979498;28;20027;-79
2022/01/09 06:13:11;;;;;;;121.43;34.50;;;-4.40;99.90;;;;;;4961239;28;20030;-78
2022/01/09 06:15:36;;;;;;;;;;;-4.40;99.90;;;;;;4979733;28;20498;-79
2022/01/09 06:18:02;;;;;;;45.65;17.73;;;-4.40;99.90;;;;;;4977703;28;20097;-79
2022/01/09 06:20:28;;;;;;;38.28;15.15;;;-4.40;99.90;;;;;;4960628;28;20023;-79
2022/01/09 06:22:53;;;;;;;33.20;14.30;;;-4.50;99.90;;;;;;4960699;28;20035;-78
2022/01/09 06:25:21;;;;;;;31.02;13.45;;;-4.50;99.90;;;;;;4961470;28;20058;-79
2022/01/09 06:27:47;;;;;;;37.97;15.45;;;-4.40;99.90;;;;;;4961789;28;20027;-80
2022/01/09 06:30:13;;;;;;;25.80;13.30;;;-4.40;99.90;;;;;;4961563;28;20027;-79
2022/01/09 06:32:38;;;;;;;30.65;15.02;;;-4.40;99.90;;;;;;4960784;28;20046;-79
2022/01/09 06:35:05;;;;;;;27.95;14.07;;;-4.30;99.90;;;;;;4980124;28;20459;-79
2022/01/09 06:37:31;;;;;;;33.53;14.30;;;-4.30;99.90;;;;;;4979038;28;20086;-79
2022/01/09 06:39:57;;;;;;;28.65;14.90;;;-4.20;99.90;;;;;;4961051;28;20083;-79
2022/01/09 06:42:22;;;;;;;;;;;-4.30;99.90;;;;;;4979152;28;20744;-79
2022/01/09 06:44:48;;;;;;;20.65;10.60;;;-4.20;99.90;;;;;;4978309;28;19917;-79
2022/01/09 06:47:14;;;;;;;26.23;11.02;;;-4.20;99.90;;;;;;4960951;28;20026;-79
2022/01/09 06:49:39;;;;;;;;;;;-4.20;99.90;;;;;;4967377;28;20027;-80
2022/01/09 06:52:05;;;;;;;24.90;10.73;;;-4.20;99.90;;;;;;4970009;28;19973;-79
2022/01/09 06:54:31;;;;;;;31.98;14.45;;;-4.20;99.90;;;;;;4971909;28;20031;-79
2022/01/09 06:56:56;;;;;;;;;;;-4.30;99.90;;;;;;4973991;28;20027;-79
2022/01/09 06:59:22;;;;;;;35.17;16.17;;;-4.30;99.90;;;;;;4975230;28;19949;-81
2022/01/09 07:01:48;;;;;;;39.40;17.65;;;-4.30;99.90;;;;;;4975360;28;20031;-81
2022/01/09 07:04:13;;;;;;;34.90;16.05;;;-4.30;99.90;;;;;;4973587;28;20091;-81
2022/01/09 07:06:39;;;;;;;;;;;-4.30;99.90;;;;;;4993163;28;20039;-79
2022/01/09 07:09:05;;;;;;;28.25;15.25;;;-4.30;99.90;;;;;;4992648;28;19965;-79
2022/01/09 07:11:31;;;;;;;24.05;13.20;;;-4.30;99.90;;;;;;4979167;28;20027;-81
2022/01/09 07:13:57;;;;;;;34.60;14.88;;;-4.20;99.90;;;;;;4994650;28;20606;-80
2022/01/09 07:16:22;;;;;;;;;;;-4.10;99.90;;;;;;4968864;28;20166;-80
2022/01/09 07:18:48;;;;;;;28.40;13.85;;;-3.80;99.90;;;;;;4976518;28;19912;-80
2022/01/09 07:21:14;;;;;;;;;;;-3.40;99.90;;;;;;4997958;28;20082;-81
2022/01/09 07:23:39;;;;;;;13.90;6.90;;;-3.20;99.90;;;;;;4978399;28;19978;-81
2022/01/09 07:26:05;;;;;;;;;;;-3.00;99.90;;;;;;4977205;28;20009;-80
2022/01/09 07:28:31;;;;;;;16.95;7.45;;;-2.90;99.90;;;;;;4975657;28;19981;-80
2022/01/09 07:30:56;;;;;;;;;;;-2.80;99.90;;;;;;4976199;28;20109;-82
2022/01/09 07:33:22;;;;;;;28.33;12.23;;;-2.60;99.90;;;;;;4994585;28;19961;-81
2022/01/09 07:35:48;;;;;;;;;;;-2.50;99.90;;;;;;4994089;28;20019;-82
2022/01/09 07:38:13;;;;;;;97.28;44.10;;;-2.40;99.90;;;;;;4994332;28;19906;-80
2022/01/09 07:40:39;;;;;;;;;;;-2.30;99.90;;;;;;4974810;28;20027;-80
2022/01/09 07:43:05;;;;;;;76.20;38.75;;;-2.10;99.90;;;;;;4964910;28;19921;-80
2022/01/09 07:45:30;;;;;;;;;;;-2.00;99.90;;;;;;4965350;28;20031;-80
2022/01/09 07:48:00;;;;;;;90.72;44.30;;;-1.80;99.90;;;;;;4968820;28;19906;-80
2022/01/09 07:50:27;;;;;;;72.88;34.72;;;-1.70;99.90;;;;;;4969915;28;20030;-80
2022/01/09 07:52:54;;;;;;;65.88;32.78;;;-1.40;99.90;;;;;;4962258;28;20411;-79
2022/01/09 07:55:20;;;;;;;67.35;32.00;;;-1.10;99.90;;;;;;4986497;28;20034;-80
2022/01/09 07:57:47;;;;;;;54.55;29.00;;;-0.70;99.90;;;;;;4975412;28;20480;-82
2022/01/09 08:00:13;;;;;;;59.17;28.20;;;-0.40;99.90;;;;;;4992536;28;20027;-82
2022/01/09 08:02:40;;;;;;;55.30;29.42;;;-0.10;99.90;;;;;;4975504;28;20040;-82
2022/01/09 08:05:06;;;;;;;57.17;29.45;;;0.20;99.90;;;;;;4974042;28;20034;-82
2022/01/09 08:07:31;;;;;;;;;;;0.40;99.90;;;;;;4974473;28;20031;-83
2022/01/09 08:09:57;;;;;;;65.75;33.88;;;0.60;99.90;;;;;;4975177;28;19912;-82
2022/01/09 08:12:23;;;;;;;;;;;0.90;99.90;;;;;;4974632;28;20030;-82
2022/01/09 08:14:48;;;;;;;60.28;31.10;;;1.10;99.70;;;;;;4974901;28;19917;-81
2022/01/09 08:17:14;;;;;;;;;;;1.40;97.00;;;;;;4975974;28;20022;-82
2022/01/09 08:19:40;;;;;;;55.03;28.25;;;1.50;94.20;;;;;;4990776;28;19906;-83
2022/01/09 08:22:06;;;;;;;;;;;1.60;96.20;;;;;;4991957;28;20031;-80
2022/01/09 08:24:36;;;;;;;65.85;36.33;;;1.80;95.50;;;;;;4991651;28;19906;-81
2022/01/09 08:27:03;;;;;;;73.93;40.92;;;2.00;95.20;;;;;;4975255;28;20041;-81
2022/01/09 08:29:28;;;;;;;71.90;36.30;;;2.30;92.20;;;;;;4976062;28;20034;-82
2022/01/09 08:31:54;;;;;;;73.05;40.28;;;2.60;92.50;;;;;;4976413;28;20026;-82
2022/01/09 08:34:20;;;;;;;63.50;35.60;;;3.00;88.30;;;;;;4977567;28;20046;-81
2022/01/09 08:36:46;;;;;;;;;;;3.30;83.70;;;;;;4978944;28;20011;-82
2022/01/09 08:39:12;;;;;;;60.42;33.15;;;3.50;83.50;;;;;;4996111;28;19917;-81
2022/01/09 08:41:38;;;;;;;66.38;37.35;;;3.90;78.00;;;;;;4980258;28;20027;-80
2022/01/09 08:44:04;;;;;;;;;;;4.20;77.50;;;;;;4982560;28;20073;-80
2022/01/09 08:46:31;;;;;;;57.03;30.80;;;4.20;70.90;;;;;;4980635;28;19974;-79
2022/01/09 08:48:58;;;;;;;49.47;30.00;;;4.30;72.90;;;;;;4981988;28;20102;-80
2022/01/09 08:51:24;;;;;;;52.17;33.95;;;4.40;74.50;;;;;;4994954;28;20031;-80
2022/01/09 08:53:52;;;;;;;60.55;35.00;;;4.20;73.60;;;;;;4968702;28;20106;-79
2022/01/09 08:56:20;;;;;;;77.82;42.55;;;4.10;75.10;;;;;;4986087;28;20031;-79
2022/01/09 08:58:46;;;;;;;74.00;42.28;;;3.80;78.40;;;;;;4985715;28;20038;-79
2022/01/09 09:01:12;;;;;;;76.30;41.55;;;3.60;81.50;;;;;;4995590;28;20015;-83
2022/01/09 09:03:41;;;;;;;72.50;42.15;;;3.40;84.00;;;;;;4977547;28;20102;-81
2022/01/09 09:06:12;;;;;;;84.25;45.95;;;3.40;83.70;;;;;;4963887;28;20544;-81
2022/01/09 09:08:39;;;;;;;73.20;39.95;;;3.20;88.00;;;;;;4974127;28;20027;-80
2022/01/09 09:11:06;;;;;;;81.30;39.95;;;3.10;90.40;;;;;;4987078;28;20087;-80
2022/01/09 09:13:31;;;;;;;71.53;38.03;;;3.00;91.60;;;;;;4960976;28;20077;-79
2022/01/09 09:15:57;;;;;;;56.80;32.78;;;2.90;92.90;;;;;;4960119;28;20031;-79
2022/01/09 09:18:23;;;;;;;60.30;34.47;;;2.80;94.10;;;;;;4959059;28;20085;-78
2022/01/09 09:20:48;;;;;;;59.80;34.22;;;2.60;96.00;;;;;;4962837;28;20031;-80
2022/01/09 09:23:14;;;;;;;;;;;2.50;96.60;;;;;;4964675;28;20046;-80
2022/01/09 09:25:40;;;;;;;53.70;27.45;;;2.30;97.20;;;;;;4984976;28;19946;-80
2022/01/09 09:28:05;;;;;;;;;;;2.40;96.70;;;;;;4985892;28;20055;-80
2022/01/09 09:30:31;;;;;;;47.17;23.95;;;2.40;96.40;;;;;;4984292;28;19913;-80
2022/01/09 09:32:56;;;;;;;;;;;2.30;95.40;;;;;;4967348;28;20082;-79
2022/01/09 09:35:22;;;;;;;52.42;26.48;;;2.30;95.60;;;;;;4984126;28;19906;-80
2022/01/09 09:37:48;;;;;;;;;;;2.30;95.70;;;;;;4967290;28;20054;-80
2022/01/09 09:40:13;;;;;;;49.88;27.23;;;2.20;95.70;;;;;;4968500;28;19922;-80
2022/01/09 09:42:39;;;;;;;;;;;2.10;96.50;;;;;;4966748;28;20042;-80
2022/01/09 09:45:07;;;;;;;63.42;32.65;;;2.00;98.10;;;;;;4967335;28;20346;-80
2022/01/09 09:47:35;;;;;;;59.10;32.22;;;2.00;99.90;;;;;;4986945;28;20094;-82
2022/01/09 09:50:02;;;;;;;51.83;30.88;;;2.00;99.90;;;;;;4978611;28;20054;-82
2022/01/09 09:52:28;;;;;;;56.78;30.30;;;2.00;99.90;;;;;;4978842;28;20023;-80
2022/01/09 09:54:54;;;;;;;;;;;1.90;99.90;;;;;;4992544;28;20057;-81
2022/01/09 09:57:20;;;;;;;53.30;29.67;;;1.90;99.90;;;;;;4992020;28;19929;-80
2022/01/09 09:59:46;;;;;;;;;;;1.90;99.90;;;;;;4974711;28;20026;-81
2022/01/09 10:02:14;;;;;;;58.28;32.67;;;1.80;99.90;;;;;;4968551;28;19925;-80
2022/01/09 10:05:00;;;;;;;54.33;30.40;;;1.80;99.90;;;;;;4968963;28;20034;-80
2022/01/09 10:07:27;;;;;;;65.65;36.67;;;1.70;99.90;;;;;;4975398;28;20640;-81
2022/01/09 10:09:59;;;;;;;61.15;33.95;;;1.70;99.90;;;;;;4991501;28;20090;-80
2022/01/09 10:12:31;;;;;;;56.67;31.88;;;1.70;99.90;;;;;;4981325;28;20023;-78
2022/01/09 10:14:58;;;;;;;53.88;30.42;;;1.60;99.90;;;;;;4990925;28;20023;-81
2022/01/09 10:17:25;;;;;;;62.67;32.60;;;1.70;99.90;;;;;;4992955;28;20035;-81
2022/01/09 10:19:58;;;;;;;70.38;39.40;;;1.60;99.90;;;;;;4990485;28;20015;-82
2022/01/09 10:22:33;;;;;;;53.22;30.35;;;1.60;99.90;;;;;;4989616;28;20030;-78
2022/01/09 10:25:22;;;;;;;61.00;32.30;;;1.60;99.90;;;;;;4970708;28;20047;-81
2022/01/09 10:27:51;;;;;;;69.75;36.30;;;1.50;99.90;;;;;;4990318;28;20034;-80
2022/01/09 10:30:20;;;;;;;68.22;34.22;;;1.50;99.90;;;;;;4973494;28;20023;-80
2022/01/09 10:32:46;;;;;;;64.63;35.13;;;1.60;99.90;;;;;;4990854;28;20640;-80
2022/01/09 10:35:13;;;;;;;;;;;1.60;99.90;;;;;;4968983;28;20058;-80
2022/01/09 10:37:43;;;;;;;59.50;30.35;;;1.70;99.90;;;;;;4989277;28;19914;-82
2022/01/09 10:40:16;;;;;;;58.08;31.45;;;1.90;99.90;;;;;;4972681;28;20042;-81
2022/01/09 10:42:42;;;;;;;68.43;35.90;;;2.00;99.90;;;;;;4972579;28;20034;-80
2022/01/09 10:45:14;;;;;;;;;;;2.10;99.90;;;;;;4990441;28;20046;-81
2022/01/09 10:47:40;;;;;;;62.15;31.90;;;2.20;99.30;;;;;;4989860;28;19930;-81
2022/01/09 10:50:06;;;;;;;;;;;2.30;98.90;;;;;;4972781;28;20563;-82
2022/01/09 10:52:36;;;;;;;70.88;36.45;;;2.40;98.50;;;;;;4993174;28;19941;-79
2022/01/09 10:55:07;;;;;;;61.95;33.03;;;2.30;99.20;;;;;;4980914;28;20031;-80
2022/01/09 10:57:35;;;;;;;106.57;43.35;;;2.50;99.60;;;;;;4965086;28;20034;-78
2022/01/09 11:00:11;;;;;;;93.68;41.70;;;2.60;99.20;;;;;;4963054;28;20018;-80
2022/01/09 11:02:37;;;;;;;59.43;31.17;;;2.60;98.80;;;;;;4964364;28;20420;-79
2022/01/09 11:05:04;;;;;;;79.30;38.70;;;2.50;99.20;;;;;;4964954;28;20043;-80
2022/01/09 11:07:30;;;;;;;85.38;40.60;;;2.50;99.00;;;;;;4986943;28;20031;-81
2022/01/09 11:09:58;;;;;;;62.65;34.28;;;2.40;98.90;;;;;;4969887;28;20027;-80
2022/01/09 11:12:31;;;;;;;46.47;28.15;;;2.40;98.90;;;;;;4964262;28;20491;-80
2022/01/09 11:15:00;;;;;;;43.83;26.90;;;2.40;98.90;;;;;;4965603;28;20027;-80
2022/01/09 11:17:27;;;;;;;58.40;34.78;;;2.30;99.20;;;;;;4962747;28;20034;-77
2022/01/09 11:19:54;;;;;;;64.40;36.83;;;2.20;99.00;;;;;;4966373;28;20089;-80
2022/01/09 11:22:20;;;;;;;;;;;2.10;99.20;;;;;;4966467;28;20058;-80
2022/01/09 11:24:54;;;;;;;110.80;60.30;;;2.10;99.60;;;;;;4981531;28;19906;-79
2022/01/09 11:27:27;;;;;;;67.68;37.78;;;2.00;99.90;;;;;;4982656;28;20043;-80
2022/01/09 11:30:10;;;;;;;58.53;31.58;;;1.90;99.90;;;;;;4979456;28;20066;-79
2022/01/09 11:32:57;;;;;;;51.03;29.17;;;1.90;99.90;;;;;;4967162;28;20440;-78
2022/01/09 11:35:29;;;;;;;55.78;29.05;;;1.90;99.90;;;;;;4967310;28;20405;-80
2022/01/09 11:38:10;;;;;;;47.45;29.33;;;1.80;99.90;;;;;;4967528;28;20027;-80
2022/01/09 11:40:38;;;;;;;45.00;27.92;;;1.80;99.90;;;;;;4968017;28;20102;-80
2022/01/09 11:43:16;;;;;;;55.10;30.10;;;1.70;99.90;;;;;;4984144;28;20480;-79
2022/01/09 11:46:11;;;;;;;51.08;27.35;;;1.60;99.90;;;;;;4982652;28;20061;-80
2022/01/09 11:49:01;;;;;;;220.25;121.05;;;1.60;99.90;;;;;;4963570;28;20031;-79
2022/01/09 11:51:34;;;;;;;86.55;46.67;;;1.50;99.90;;;;;;4963291;28;20062;-79
2022/01/09 11:54:15;;;;;;;59.10;30.20;;;1.50;99.90;;;;;;4964766;28;20038;-79
2022/01/09 11:56:44;;;;;;;53.95;29.85;;;1.50;99.90;;;;;;4967656;28;20046;-80
2022/01/09 11:59:29;;;;;;;51.15;28.83;;;1.50;99.90;;;;;;4965727;28;20035;-80
2022/01/09 12:01:59;;;;;;;48.10;26.63;;;1.50;99.90;;;;;;4958881;28;20089;-78
2022/01/09 12:04:35;;;;;;;51.88;29.63;;;1.50;99.90;;;;;;4954742;28;20026;-79
2022/01/09 12:07:07;;;;;;;51.42;25.58;;;1.50;99.90;;;;;;4962486;28;20035;-80
2022/01/09 12:09:41;;;;;;;42.08;24.50;;;1.50;99.90;;;;;;4968868;28;20056;-81
2022/01/09 12:12:08;;;;;;;56.03;32.20;;;1.50;99.90;;;;;;4970336;28;20046;-80
2022/01/09 12:14:56;;;;;;;113.65;66.97;;;1.50;99.90;;;;;;4969201;28;20023;-79
2022/01/09 12:17:31;;;;;;;53.78;30.02;;;1.50;99.90;;;;;;4986441;28;20400;-80
2022/01/09 12:20:07;;;;;;;54.47;30.33;;;1.50;99.90;;;;;;4969265;28;20073;-80
2022/01/09 12:22:48;;;;;;;50.42;28.17;;;1.50;99.90;;;;;;4985571;28;20050;-80
2022/01/09 12:25:26;;;;;;;50.28;25.17;;;1.50;99.90;;;;;;4987839;28;20043;-81
2022/01/09 12:27:57;;;;;;;48.05;27.15;;;1.50;99.90;;;;;;4967765;28;20031;-81
2022/01/09 12:30:41;;;;;;;54.88;30.35;;;1.50;99.90;;;;;;4968464;28;20499;-80
2022/01/09 12:33:09;;;;;;;50.88;29.45;;;1.60;99.90;;;;;;4985855;28;20098;-79
2022/01/09 12:35:43;;;;;;;51.17;26.30;;;1.60;99.90;;;;;;4970157;28;20041;-81
2022/01/09 12:38:14;;;;;;;46.10;25.77;;;1.60;99.90;;;;;;4963689;28;20034;-79
2022/01/09 12:40:41;;;;;;;48.40;26.40;;;1.60;99.90;;;;;;4969000;28;20509;-79
2022/01/09 12:43:07;;;;;;;73.75;50.28;;;1.70;99.90;;;;;;4966097;28;20126;-79
2022/01/09 12:45:35;;;;;;;47.22;30.42;;;1.70;99.90;;;;;;4955641;28;20043;-80
2022/01/09 12:48:03;;;;;;;53.60;28.30;;;1.70;99.90;;;;;;4955020;28;20486;-79
2022/01/09 12:50:38;;;;;;;46.22;23.48;;;1.70;99.90;;;;;;4968092;28;20047;-79
2022/01/09 12:53:15;;;;;;;39.95;23.63;;;1.70;99.70;;;;;;4948161;28;20125;-79